sensor_id;sensor_type;location;lat;lon;timestamp;temperature;humidity
25554;DHT22;13446;50.926;5.332;2024-01-25T00:01:08;10.80;99.90
25554;DHT22;13446;50.926;5.332;2024-01-25T00:03:35;10.70;99.90
25554;DHT22;13446;50.926;5.332;2024-01-25T00:06:00;10.60;99.90
25554;DHT22;13446;50.926;5.332;2024-01-25T00:08:26;10.40;99.90
25554;DHT22;13446;50.926;5.332;2024-01-25T00:10:52;10.40;99.90
25554;DHT22;13446;50.926;5.332;2024-01-25T00:13:17;10.50;99.90
25554;DHT22;13446;50.926;5.332;2024-01-25T00:15:43;10.40;99.90
25554;DHT22;13446;50.926;5.332;2024-01-25T00:18:09;10.40;99.90
25554;DHT22;13446;50.926;5.332;2024-01-25T00:20:34;10.40;99.90
25554;DHT22;13446;50.926;5.332;2024-01-25T00:23:00;10.40;99.90
25554;DHT22;13446;50.926;5.332;2024-01-25T00:25:26;10.40;99.90
25554;DHT22;13446;50.926;5.332;2024-01-25T00:27:52;10.30;99.90
25554;DHT22;13446;50.926;5.332;2024-01-25T00:30:18;10.30;99.90
25554;DHT22;13446;50.926;5.332;2024-01-25T00:32:43;10.30;99.90
25554;DHT22;13446;50.926;5.332;2024-01-25T00:35:10;10.40;99.90
25554;DHT22;13446;50.926;5.332;2024-01-25T00:37:39;10.30;99.90
25554;DHT22;13446;50.926;5.332;2024-01-25T00:40:06;10.30;99.90
25554;DHT22;13446;50.926;5.332;2024-01-25T00:42:38;10.20;99.90
25554;DHT22;13446;50.926;5.332;2024-01-25T00:45:07;10.00;99.90
25554;DHT22;13446;50.926;5.332;2024-01-25T00:47:32;10.00;99.90
25554;DHT22;13446;50.926;5.332;2024-01-25T00:49:58;10.00;99.90
25554;DHT22;13446;50.926;5.332;2024-01-25T00:52:24;10.00;99.90
25554;DHT22;13446;50.926;5.332;2024-01-25T00:54:50;10.00;99.90
25554;DHT22;13446;50.926;5.332;2024-01-25T00:57:16;9.90;99.90
25554;DHT22;13446;50.926;5.332;2024-01-25T00:59:42;9.90;99.90
25554;DHT22;13446;50.926;5.332;2024-01-25T01:02:11;10.00;99.90
25554;DHT22;13446;50.926;5.332;2024-01-25T01:04:38;10.00;99.90
25554;DHT22;13446;50.926;5.332;2024-01-25T01:07:04;10.00;99.90
25554;DHT22;13446;50.926;5.332;2024-01-25T01:09:30;10.00;99.90
25554;DHT22;13446;50.926;5.332;2024-01-25T01:11:55;10.00;99.90
25554;DHT22;13446;50.926;5.332;2024-01-25T01:14:21;10.00;99.90
25554;DHT22;13446;50.926;5.332;2024-01-25T01:16:47;10.10;99.90
25554;DHT22;13446;50.926;5.332;2024-01-25T01:19:12;10.00;99.90
25554;DHT22;13446;50.926;5.332;2024-01-25T01:21:38;10.00;99.90
25554;DHT22;13446;50.926;5.332;2024-01-25T01:24:06;10.00;99.90
25554;DHT22;13446;50.926;5.332;2024-01-25T01:26:32;10.00;99.90
25554;DHT22;13446;50.926;5.332;2024-01-25T01:29:00;9.90;99.90
25554;DHT22;13446;50.926;5.332;2024-01-25T01:31:26;9.70;99.90
25554;DHT22;13446;50.926;5.332;2024-01-25T01:33:51;9.70;99.90
25554;DHT22;13446;50.926;5.332;2024-01-25T01:36:17;9.60;99.90
25554;DHT22;13446;50.926;5.332;2024-01-25T01:38:43;9.50;99.90
25554;DHT22;13446;50.926;5.332;2024-01-25T01:41:10;9.50;99.90
25554;DHT22;13446;50.926;5.332;2024-01-25T01:43:36;9.40;99.90
25554;DHT22;13446;50.926;5.332;2024-01-25T01:46:09;9.30;99.90
25554;DHT22;13446;50.926;5.332;2024-01-25T01:48:36;9.40;99.90
25554;DHT22;13446;50.926;5.332;2024-01-25T01:51:02;9.40;99.90
25554;DHT22;13446;50.926;5.332;2024-01-25T01:53:27;9.30;99.90
25554;DHT22;13446;50.926;5.332;2024-01-25T01:55:53;9.20;99.90
25554;DHT22;13446;50.926;5.332;2024-01-25T01:58:20;9.20;99.90
25554;DHT22;13446;50.926;5.332;2024-01-25T02:00:49;9.20;99.90
25554;DHT22;13446;50.926;5.332;2024-01-25T02:03:15;9.10;99.90
25554;DHT22;13446;50.926;5.332;2024-01-25T02:05:41;9.10;99.90
25554;DHT22;13446;50.926;5.332;2024-01-25T02:08:07;9.10;99.90
25554;DHT22;13446;50.926;5.332;2024-01-25T02:10:34;9.00;99.90
25554;DHT22;13446;50.926;5.332;2024-01-25T02:13:00;9.00;99.90
25554;DHT22;13446;50.926;5.332;2024-01-25T02:15:25;8.90;99.90
25554;DHT22;13446;50.926;5.332;2024-01-25T02:17:51;8.90;99.90
25554;DHT22;13446;50.926;5.332;2024-01-25T02:20:18;8.90;99.90
25554;DHT22;13446;50.926;5.332;2024-01-25T02:22:44;8.80;99.90
25554;DHT22;13446;50.926;5.332;2024-01-25T02:25:10;8.80;99.90
25554;DHT22;13446;50.926;5.332;2024-01-25T02:27:35;8.80;99.90
25554;DHT22;13446;50.926;5.332;2024-01-25T02:30:05;8.80;99.90
25554;DHT22;13446;50.926;5.332;2024-01-25T02:32:32;8.80;99.90
25554;DHT22;13446;50.926;5.332;2024-01-25T02:34:58;8.70;99.90
25554;DHT22;13446;50.926;5.332;2024-01-25T02:37:23;8.60;99.90
25554;DHT22;13446;50.926;5.332;2024-01-25T02:39:50;8.60;99.90
25554;DHT22;13446;50.926;5.332;2024-01-25T02:42:16;8.50;99.90
25554;DHT22;13446;50.926;5.332;2024-01-25T02:44:42;8.50;99.90
25554;DHT22;13446;50.926;5.332;2024-01-25T02:47:08;8.50;99.90
25554;DHT22;13446;50.926;5.332;2024-01-25T02:49:34;8.50;99.90
25554;DHT22;13446;50.926;5.332;2024-01-25T02:52:00;8.40;99.90
25554;DHT22;13446;50.926;5.332;2024-01-25T02:54:26;8.40;99.90
25554;DHT22;13446;50.926;5.332;2024-01-25T02:56:52;8.50;99.90
25554;DHT22;13446;50.926;5.332;2024-01-25T02:59:17;8.50;99.90
25554;DHT22;13446;50.926;5.332;2024-01-25T03:01:44;8.40;99.90
25554;DHT22;13446;50.926;5.332;2024-01-25T03:04:10;8.40;99.90
25554;DHT22;13446;50.926;5.332;2024-01-25T03:06:36;8.40;99.90
25554;DHT22;13446;50.926;5.332;2024-01-25T03:09:02;8.40;99.90
25554;DHT22;13446;50.926;5.332;2024-01-25T03:11:30;8.40;99.90
25554;DHT22;13446;50.926;5.332;2024-01-25T03:13:55;8.40;99.90
25554;DHT22;13446;50.926;5.332;2024-01-25T03:16:22;8.40;99.90
25554;DHT22;13446;50.926;5.332;2024-01-25T03:18:48;8.30;99.90
25554;DHT22;13446;50.926;5.332;2024-01-25T03:21:14;8.30;99.90
25554;DHT22;13446;50.926;5.332;2024-01-25T03:23:39;8.20;99.90
25554;DHT22;13446;50.926;5.332;2024-01-25T03:26:05;8.20;99.90
25554;DHT22;13446;50.926;5.332;2024-01-25T03:28:32;8.20;99.90
25554;DHT22;13446;50.926;5.332;2024-01-25T03:30:58;8.20;99.90
25554;DHT22;13446;50.926;5.332;2024-01-25T03:33:24;8.20;99.90
25554;DHT22;13446;50.926;5.332;2024-01-25T03:35:50;8.20;99.90
25554;DHT22;13446;50.926;5.332;2024-01-25T03:38:17;8.30;99.90
25554;DHT22;13446;50.926;5.332;2024-01-25T03:40:43;8.10;99.90
25554;DHT22;13446;50.926;5.332;2024-01-25T03:43:09;8.10;99.90
25554;DHT22;13446;50.926;5.332;2024-01-25T03:45:35;8.10;99.90
25554;DHT22;13446;50.926;5.332;2024-01-25T03:48:01;8.10;99.90
25554;DHT22;13446;50.926;5.332;2024-01-25T03:50:27;8.10;99.90
25554;DHT22;13446;50.926;5.332;2024-01-25T03:52:53;8.00;99.90
25554;DHT22;13446;50.926;5.332;2024-01-25T03:55:18;7.90;99.90
25554;DHT22;13446;50.926;5.332;2024-01-25T03:57:45;7.90;99.90
25554;DHT22;13446;50.926;5.332;2024-01-25T04:00:11;8.00;99.90
25554;DHT22;13446;50.926;5.332;2024-01-25T04:02:37;8.00;99.90
25554;DHT22;13446;50.926;5.332;2024-01-25T04:05:03;8.00;99.90
25554;DHT22;13446;50.926;5.332;2024-01-25T04:07:29;7.80;99.90
25554;DHT22;13446;50.926;5.332;2024-01-25T04:09:54;7.90;99.90
25554;DHT22;13446;50.926;5.332;2024-01-25T04:12:20;7.80;99.90
25554;DHT22;13446;50.926;5.332;2024-01-25T04:14:46;7.80;99.90
25554;DHT22;13446;50.926;5.332;2024-01-25T04:17:11;7.70;99.90
25554;DHT22;13446;50.926;5.332;2024-01-25T04:19:37;7.70;99.90
25554;DHT22;13446;50.926;5.332;2024-01-25T04:22:03;7.70;99.90
25554;DHT22;13446;50.926;5.332;2024-01-25T04:24:29;7.70;99.90
25554;DHT22;13446;50.926;5.332;2024-01-25T04:26:54;7.70;99.90
25554;DHT22;13446;50.926;5.332;2024-01-25T04:29:20;7.70;99.90
25554;DHT22;13446;50.926;5.332;2024-01-25T04:31:46;7.70;99.90
25554;DHT22;13446;50.926;5.332;2024-01-25T04:34:13;7.70;99.90
25554;DHT22;13446;50.926;5.332;2024-01-25T04:36:39;7.70;99.90
25554;DHT22;13446;50.926;5.332;2024-01-25T04:39:05;7.60;99.90
25554;DHT22;13446;50.926;5.332;2024-01-25T04:41:30;7.70;99.90
25554;DHT22;13446;50.926;5.332;2024-01-25T04:43:56;7.70;99.90
25554;DHT22;13446;50.926;5.332;2024-01-25T04:46:22;7.60;99.90
25554;DHT22;13446;50.926;5.332;2024-01-25T04:48:47;7.60;99.90
25554;DHT22;13446;50.926;5.332;2024-01-25T04:51:17;7.50;99.90
25554;DHT22;13446;50.926;5.332;2024-01-25T04:53:43;7.60;99.90
25554;DHT22;13446;50.926;5.332;2024-01-25T04:56:09;7.60;99.90
25554;DHT22;13446;50.926;5.332;2024-01-25T04:58:35;7.60;99.90
25554;DHT22;13446;50.926;5.332;2024-01-25T05:01:00;7.60;99.90
25554;DHT22;13446;50.926;5.332;2024-01-25T05:03:26;7.70;99.90
25554;DHT22;13446;50.926;5.332;2024-01-25T05:05:52;7.50;99.90
25554;DHT22;13446;50.926;5.332;2024-01-25T05:08:18;7.60;99.90
25554;DHT22;13446;50.926;5.332;2024-01-25T05:10:43;7.50;99.90
25554;DHT22;13446;50.926;5.332;2024-01-25T05:13:10;7.40;99.90
25554;DHT22;13446;50.926;5.332;2024-01-25T05:15:35;7.50;99.90
25554;DHT22;13446;50.926;5.332;2024-01-25T05:18:02;7.50;99.90
25554;DHT22;13446;50.926;5.332;2024-01-25T05:20:27;7.40;99.90
25554;DHT22;13446;50.926;5.332;2024-01-25T05:23:02;7.40;99.90
25554;DHT22;13446;50.926;5.332;2024-01-25T05:25:28;7.40;99.90
25554;DHT22;13446;50.926;5.332;2024-01-25T05:27:55;7.30;99.90
25554;DHT22;13446;50.926;5.332;2024-01-25T05:30:21;7.30;99.90
25554;DHT22;13446;50.926;5.332;2024-01-25T05:32:47;7.40;99.90
25554;DHT22;13446;50.926;5.332;2024-01-25T05:35:15;7.30;99.90
25554;DHT22;13446;50.926;5.332;2024-01-25T05:37:41;7.30;99.90
25554;DHT22;13446;50.926;5.332;2024-01-25T05:40:07;7.30;99.90
25554;DHT22;13446;50.926;5.332;2024-01-25T05:42:34;7.20;99.90
25554;DHT22;13446;50.926;5.332;2024-01-25T05:45:01;7.20;99.90
25554;DHT22;13446;50.926;5.332;2024-01-25T05:47:27;7.30;99.90
25554;DHT22;13446;50.926;5.332;2024-01-25T05:49:52;7.20;99.90
25554;DHT22;13446;50.926;5.332;2024-01-25T05:52:18;7.20;99.90
25554;DHT22;13446;50.926;5.332;2024-01-25T05:54:45;7.20;99.90
25554;DHT22;13446;50.926;5.332;2024-01-25T05:57:11;7.20;99.90
25554;DHT22;13446;50.926;5.332;2024-01-25T05:59:36;7.30;99.90
25554;DHT22;13446;50.926;5.332;2024-01-25T06:02:02;7.20;99.90
25554;DHT22;13446;50.926;5.332;2024-01-25T06:04:28;7.20;99.90
25554;DHT22;13446;50.926;5.332;2024-01-25T06:06:53;7.10;99.90
25554;DHT22;13446;50.926;5.332;2024-01-25T06:09:19;7.00;99.90
25554;DHT22;13446;50.926;5.332;2024-01-25T06:11:45;7.00;99.90
25554;DHT22;13446;50.926;5.332;2024-01-25T06:14:11;6.90;99.90
25554;DHT22;13446;50.926;5.332;2024-01-25T06:16:37;7.00;99.90
25554;DHT22;13446;50.926;5.332;2024-01-25T06:19:03;7.00;99.90
25554;DHT22;13446;50.926;5.332;2024-01-25T06:21:30;6.90;99.90
25554;DHT22;13446;50.926;5.332;2024-01-25T06:23:55;6.90;99.90
25554;DHT22;13446;50.926;5.332;2024-01-25T06:26:21;7.00;99.90
25554;DHT22;13446;50.926;5.332;2024-01-25T06:28:46;6.90;99.90
25554;DHT22;13446;50.926;5.332;2024-01-25T06:31:12;6.80;99.90
25554;DHT22;13446;50.926;5.332;2024-01-25T06:33:38;6.80;99.90
25554;DHT22;13446;50.926;5.332;2024-01-25T06:36:04;6.80;99.90
25554;DHT22;13446;50.926;5.332;2024-01-25T06:38:29;6.80;99.90
25554;DHT22;13446;50.926;5.332;2024-01-25T06:40:55;6.70;99.90
25554;DHT22;13446;50.926;5.332;2024-01-25T06:43:21;6.70;99.90
25554;DHT22;13446;50.926;5.332;2024-01-25T06:45:46;6.70;99.90
25554;DHT22;13446;50.926;5.332;2024-01-25T06:48:12;6.70;99.90
25554;DHT22;13446;50.926;5.332;2024-01-25T06:50:38;6.80;99.90
25554;DHT22;13446;50.926;5.332;2024-01-25T06:53:04;6.80;99.90
25554;DHT22;13446;50.926;5.332;2024-01-25T06:55:30;6.80;99.90
25554;DHT22;13446;50.926;5.332;2024-01-25T06:57:56;6.70;99.90
25554;DHT22;13446;50.926;5.332;2024-01-25T07:00:23;6.60;99.90
25554;DHT22;13446;50.926;5.332;2024-01-25T07:02:48;6.70;99.90
25554;DHT22;13446;50.926;5.332;2024-01-25T07:05:14;6.70;99.90
25554;DHT22;13446;50.926;5.332;2024-01-25T07:07:40;6.70;99.90
25554;DHT22;13446;50.926;5.332;2024-01-25T07:10:07;6.70;99.90
25554;DHT22;13446;50.926;5.332;2024-01-25T07:12:33;6.70;99.90
25554;DHT22;13446;50.926;5.332;2024-01-25T07:14:59;6.70;99.90
25554;DHT22;13446;50.926;5.332;2024-01-25T07:17:24;6.70;99.90
25554;DHT22;13446;50.926;5.332;2024-01-25T07:19:50;6.80;99.90
25554;DHT22;13446;50.926;5.332;2024-01-25T07:22:15;6.80;99.90
25554;DHT22;13446;50.926;5.332;2024-01-25T07:24:44;6.90;99.90
25554;DHT22;13446;50.926;5.332;2024-01-25T07:27:10;6.90;99.90
25554;DHT22;13446;50.926;5.332;2024-01-25T07:29:36;6.90;99.90
25554;DHT22;13446;50.926;5.332;2024-01-25T07:32:02;6.90;99.90
25554;DHT22;13446;50.926;5.332;2024-01-25T07:34:28;6.90;99.90
25554;DHT22;13446;50.926;5.332;2024-01-25T07:36:54;6.90;99.90
25554;DHT22;13446;50.926;5.332;2024-01-25T07:39:20;7.00;99.90
25554;DHT22;13446;50.926;5.332;2024-01-25T07:41:45;7.10;99.90
25554;DHT22;13446;50.926;5.332;2024-01-25T07:44:12;7.10;99.90
25554;DHT22;13446;50.926;5.332;2024-01-25T07:46:38;7.20;99.90
25554;DHT22;13446;50.926;5.332;2024-01-25T07:49:03;7.30;99.90
25554;DHT22;13446;50.926;5.332;2024-01-25T07:51:29;7.20;99.90
25554;DHT22;13446;50.926;5.332;2024-01-25T07:53:55;7.40;99.90
25554;DHT22;13446;50.926;5.332;2024-01-25T07:56:21;7.40;99.90
25554;DHT22;13446;50.926;5.332;2024-01-25T07:58:48;7.40;99.90
25554;DHT22;13446;50.926;5.332;2024-01-25T08:01:17;7.40;99.90
25554;DHT22;13446;50.926;5.332;2024-01-25T08:03:44;7.50;99.90
25554;DHT22;13446;50.926;5.332;2024-01-25T08:06:09;7.50;99.90
25554;DHT22;13446;50.926;5.332;2024-01-25T08:08:35;7.50;99.90
25554;DHT22;13446;50.926;5.332;2024-01-25T08:11:01;7.60;99.90
25554;DHT22;13446;50.926;5.332;2024-01-25T08:13:27;7.60;99.90
25554;DHT22;13446;50.926;5.332;2024-01-25T08:15:56;7.80;99.90
25554;DHT22;13446;50.926;5.332;2024-01-25T08:18:22;7.90;99.90
25554;DHT22;13446;50.926;5.332;2024-01-25T08:20:48;8.00;99.90
25554;DHT22;13446;50.926;5.332;2024-01-25T08:23:14;8.00;99.90
25554;DHT22;13446;50.926;5.332;2024-01-25T08:25:41;8.20;99.90
25554;DHT22;13446;50.926;5.332;2024-01-25T08:28:07;8.30;99.90
25554;DHT22;13446;50.926;5.332;2024-01-25T08:30:32;8.40;99.90
25554;DHT22;13446;50.926;5.332;2024-01-25T08:32:58;8.60;99.90
25554;DHT22;13446;50.926;5.332;2024-01-25T08:35:24;8.80;99.90
25554;DHT22;13446;50.926;5.332;2024-01-25T08:37:50;9.10;99.90
25554;DHT22;13446;50.926;5.332;2024-01-25T08:40:16;9.20;99.90
25554;DHT22;13446;50.926;5.332;2024-01-25T08:42:42;9.00;99.90
25554;DHT22;13446;50.926;5.332;2024-01-25T08:45:08;8.80;99.90
25554;DHT22;13446;50.926;5.332;2024-01-25T08:47:37;8.60;99.90
25554;DHT22;13446;50.926;5.332;2024-01-25T08:50:03;8.50;99.90
25554;DHT22;13446;50.926;5.332;2024-01-25T08:52:31;8.60;99.90
25554;DHT22;13446;50.926;5.332;2024-01-25T08:54:57;8.50;99.90
25554;DHT22;13446;50.926;5.332;2024-01-25T08:57:22;8.30;99.90
25554;DHT22;13446;50.926;5.332;2024-01-25T08:59:48;8.50;99.90
25554;DHT22;13446;50.926;5.332;2024-01-25T09:02:14;8.40;99.90
25554;DHT22;13446;50.926;5.332;2024-01-25T09:04:39;8.50;99.90
25554;DHT22;13446;50.926;5.332;2024-01-25T09:07:08;8.40;99.90
25554;DHT22;13446;50.926;5.332;2024-01-25T09:09:34;8.50;99.90
25554;DHT22;13446;50.926;5.332;2024-01-25T09:12:00;8.50;99.90
25554;DHT22;13446;50.926;5.332;2024-01-25T09:14:26;8.50;99.90
25554;DHT22;13446;50.926;5.332;2024-01-25T09:16:52;8.40;99.90
25554;DHT22;13446;50.926;5.332;2024-01-25T09:19:17;8.40;99.90
25554;DHT22;13446;50.926;5.332;2024-01-25T09:21:43;8.40;99.90
25554;DHT22;13446;50.926;5.332;2024-01-25T09:24:09;8.40;99.90
25554;DHT22;13446;50.926;5.332;2024-01-25T09:26:34;8.40;99.90
25554;DHT22;13446;50.926;5.332;2024-01-25T09:29:00;8.30;99.90
25554;DHT22;13446;50.926;5.332;2024-01-25T09:31:26;8.30;99.90
25554;DHT22;13446;50.926;5.332;2024-01-25T09:33:51;8.30;99.90
25554;DHT22;13446;50.926;5.332;2024-01-25T09:36:17;8.40;99.90
25554;DHT22;13446;50.926;5.332;2024-01-25T09:38:43;8.40;99.90
25554;DHT22;13446;50.926;5.332;2024-01-25T09:41:09;8.30;99.90
25554;DHT22;13446;50.926;5.332;2024-01-25T09:43:38;8.30;99.90
25554;DHT22;13446;50.926;5.332;2024-01-25T09:46:05;8.40;99.90
25554;DHT22;13446;50.926;5.332;2024-01-25T09:48:32;8.50;99.90
25554;DHT22;13446;50.926;5.332;2024-01-25T09:50:59;8.60;99.90
25554;DHT22;13446;50.926;5.332;2024-01-25T09:53:25;8.50;99.90
25554;DHT22;13446;50.926;5.332;2024-01-25T09:56:10;8.70;99.90
25554;DHT22;13446;50.926;5.332;2024-01-25T09:58:42;8.90;99.90
25554;DHT22;13446;50.926;5.332;2024-01-25T10:01:10;9.00;99.90
25554;DHT22;13446;50.926;5.332;2024-01-25T10:03:36;9.20;99.90
25554;DHT22;13446;50.926;5.332;2024-01-25T10:06:02;9.10;99.90
25554;DHT22;13446;50.926;5.332;2024-01-25T10:08:29;9.00;99.90
25554;DHT22;13446;50.926;5.332;2024-01-25T10:10:55;9.10;99.90
25554;DHT22;13446;50.926;5.332;2024-01-25T10:13:21;9.10;99.90
25554;DHT22;13446;50.926;5.332;2024-01-25T10:15:47;9.10;99.90
25554;DHT22;13446;50.926;5.332;2024-01-25T10:18:16;9.20;99.90
25554;DHT22;13446;50.926;5.332;2024-01-25T10:20:42;9.10;99.90
25554;DHT22;13446;50.926;5.332;2024-01-25T10:23:08;9.20;99.90
25554;DHT22;13446;50.926;5.332;2024-01-25T10:25:38;9.30;99.90
25554;DHT22;13446;50.926;5.332;2024-01-25T10:28:07;9.30;99.90
25554;DHT22;13446;50.926;5.332;2024-01-25T10:30:35;9.30;99.90
25554;DHT22;13446;50.926;5.332;2024-01-25T10:33:02;9.40;99.90
25554;DHT22;13446;50.926;5.332;2024-01-25T10:35:31;9.50;99.90
25554;DHT22;13446;50.926;5.332;2024-01-25T10:37:57;9.50;99.90
25554;DHT22;13446;50.926;5.332;2024-01-25T10:40:23;9.50;99.90
25554;DHT22;13446;50.926;5.332;2024-01-25T10:42:49;9.40;99.90
25554;DHT22;13446;50.926;5.332;2024-01-25T10:45:15;9.40;99.90
25554;DHT22;13446;50.926;5.332;2024-01-25T10:47:40;9.40;99.90
25554;DHT22;13446;50.926;5.332;2024-01-25T10:50:12;9.40;99.90
25554;DHT22;13446;50.926;5.332;2024-01-25T10:52:40;9.50;99.90
25554;DHT22;13446;50.926;5.332;2024-01-25T10:55:06;9.50;99.90
25554;DHT22;13446;50.926;5.332;2024-01-25T10:57:39;9.50;99.90
25554;DHT22;13446;50.926;5.332;2024-01-25T11:00:10;9.70;99.90
25554;DHT22;13446;50.926;5.332;2024-01-25T11:02:37;9.80;99.90
25554;DHT22;13446;50.926;5.332;2024-01-25T11:05:15;9.60;99.90
25554;DHT22;13446;50.926;5.332;2024-01-25T11:07:50;9.80;99.90
25554;DHT22;13446;50.926;5.332;2024-01-25T11:10:21;9.80;99.90
25554;DHT22;13446;50.926;5.332;2024-01-25T11:12:54;9.90;99.90
25554;DHT22;13446;50.926;5.332;2024-01-25T11:15:41;10.20;99.90
25554;DHT22;13446;50.926;5.332;2024-01-25T11:18:08;10.30;99.90
25554;DHT22;13446;50.926;5.332;2024-01-25T11:20:35;10.30;99.90
25554;DHT22;13446;50.926;5.332;2024-01-25T11:23:05;10.40;99.90
25554;DHT22;13446;50.926;5.332;2024-01-25T11:25:38;10.80;99.90
25554;DHT22;13446;50.926;5.332;2024-01-25T11:28:05;11.20;99.90
25554;DHT22;13446;50.926;5.332;2024-01-25T11:30:33;11.50;99.90
25554;DHT22;13446;50.926;5.332;2024-01-25T11:33:00;11.60;99.90
25554;DHT22;13446;50.926;5.332;2024-01-25T11:35:26;11.80;99.90
25554;DHT22;13446;50.926;5.332;2024-01-25T11:37:52;11.70;99.90
25554;DHT22;13446;50.926;5.332;2024-01-25T11:40:18;11.70;99.90
25554;DHT22;13446;50.926;5.332;2024-01-25T11:42:48;11.80;99.90
25554;DHT22;13446;50.926;5.332;2024-01-25T11:45:26;12.10;99.90
25554;DHT22;13446;50.926;5.332;2024-01-25T11:47:52;12.50;99.90
25554;DHT22;13446;50.926;5.332;2024-01-25T11:50:17;12.60;99.90
25554;DHT22;13446;50.926;5.332;2024-01-25T11:52:43;12.50;99.90
25554;DHT22;13446;50.926;5.332;2024-01-25T11:55:10;12.40;99.90
25554;DHT22;13446;50.926;5.332;2024-01-25T11:57:40;12.60;99.90
25554;DHT22;13446;50.926;5.332;2024-01-25T12:00:12;12.50;99.90
25554;DHT22;13446;50.926;5.332;2024-01-25T12:02:38;12.60;99.90
25554;DHT22;13446;50.926;5.332;2024-01-25T12:05:05;12.60;99.90
25554;DHT22;13446;50.926;5.332;2024-01-25T12:07:31;12.50;99.90
25554;DHT22;13446;50.926;5.332;2024-01-25T12:10:03;12.50;99.90
25554;DHT22;13446;50.926;5.332;2024-01-25T12:12:29;12.50;99.90
25554;DHT22;13446;50.926;5.332;2024-01-25T12:14:59;12.60;99.90
25554;DHT22;13446;50.926;5.332;2024-01-25T12:17:28;12.60;99.90
25554;DHT22;13446;50.926;5.332;2024-01-25T12:19:58;12.30;99.90
25554;DHT22;13446;50.926;5.332;2024-01-25T12:22:28;12.20;99.90
25554;DHT22;13446;50.926;5.332;2024-01-25T12:24:55;12.20;99.90
25554;DHT22;13446;50.926;5.332;2024-01-25T12:27:31;12.30;99.90
25554;DHT22;13446;50.926;5.332;2024-01-25T12:29:57;12.30;99.90
25554;DHT22;13446;50.926;5.332;2024-01-25T12:32:23;12.20;99.90
25554;DHT22;13446;50.926;5.332;2024-01-25T12:34:55;12.10;99.90
25554;DHT22;13446;50.926;5.332;2024-01-25T12:37:21;12.10;99.90
25554;DHT22;13446;50.926;5.332;2024-01-25T12:39:48;12.10;99.90
25554;DHT22;13446;50.926;5.332;2024-01-25T12:42:14;12.00;99.90
25554;DHT22;13446;50.926;5.332;2024-01-25T12:44:39;12.10;99.90
25554;DHT22;13446;50.926;5.332;2024-01-25T12:47:05;12.10;99.90
25554;DHT22;13446;50.926;5.332;2024-01-25T12:49:33;12.10;99.90
25554;DHT22;13446;50.926;5.332;2024-01-25T12:51:59;12.10;99.90
25554;DHT22;13446;50.926;5.332;2024-01-25T12:54:25;12.00;99.90
25554;DHT22;13446;50.926;5.332;2024-01-25T12:56:51;12.10;99.90
25554;DHT22;13446;50.926;5.332;2024-01-25T12:59:17;12.10;99.90
25554;DHT22;13446;50.926;5.332;2024-01-25T13:01:43;12.00;99.90
25554;DHT22;13446;50.926;5.332;2024-01-25T13:04:09;11.90;99.90
25554;DHT22;13446;50.926;5.332;2024-01-25T13:06:34;12.00;99.90
25554;DHT22;13446;50.926;5.332;2024-01-25T13:09:00;11.90;99.90
25554;DHT22;13446;50.926;5.332;2024-01-25T13:11:26;11.90;99.90
25554;DHT22;13446;50.926;5.332;2024-01-25T13:13:51;11.80;99.90
25554;DHT22;13446;50.926;5.332;2024-01-25T13:16:17;11.80;99.90
25554;DHT22;13446;50.926;5.332;2024-01-25T13:18:43;11.70;99.90
25554;DHT22;13446;50.926;5.332;2024-01-25T13:21:09;11.50;99.90
25554;DHT22;13446;50.926;5.332;2024-01-25T13:23:34;11.50;99.90
25554;DHT22;13446;50.926;5.332;2024-01-25T13:26:01;11.50;99.90
25554;DHT22;13446;50.926;5.332;2024-01-25T13:28:26;11.30;99.90
25554;DHT22;13446;50.926;5.332;2024-01-25T13:30:52;11.40;99.90
25554;DHT22;13446;50.926;5.332;2024-01-25T13:33:19;11.20;99.90
25554;DHT22;13446;50.926;5.332;2024-01-25T13:35:45;11.20;99.90
25554;DHT22;13446;50.926;5.332;2024-01-25T13:38:11;11.10;99.90
25554;DHT22;13446;50.926;5.332;2024-01-25T13:40:40;11.10;99.90
25554;DHT22;13446;50.926;5.332;2024-01-25T13:43:06;11.30;99.90
25554;DHT22;13446;50.926;5.332;2024-01-25T13:45:35;11.30;99.90
25554;DHT22;13446;50.926;5.332;2024-01-25T13:48:01;11.20;99.90
25554;DHT22;13446;50.926;5.332;2024-01-25T13:50:26;11.20;99.90
25554;DHT22;13446;50.926;5.332;2024-01-25T13:52:52;11.10;99.90
25554;DHT22;13446;50.926;5.332;2024-01-25T13:55:43;11.00;99.90
25554;DHT22;13446;50.926;5.332;2024-01-25T13:58:08;11.00;99.90
25554;DHT22;13446;50.926;5.332;2024-01-25T14:00:44;10.90;99.90
25554;DHT22;13446;50.926;5.332;2024-01-25T14:03:10;11.00;99.90
25554;DHT22;13446;50.926;5.332;2024-01-25T14:05:36;11.00;99.90
25554;DHT22;13446;50.926;5.332;2024-01-25T14:08:02;11.00;99.90
25554;DHT22;13446;50.926;5.332;2024-01-25T14:10:27;10.90;99.90
25554;DHT22;13446;50.926;5.332;2024-01-25T14:12:54;11.00;99.90
25554;DHT22;13446;50.926;5.332;2024-01-25T14:15:19;11.00;99.90
25554;DHT22;13446;50.926;5.332;2024-01-25T14:17:45;10.90;99.90
25554;DHT22;13446;50.926;5.332;2024-01-25T14:20:11;10.90;99.90
25554;DHT22;13446;50.926;5.332;2024-01-25T14:22:38;11.00;99.90
25554;DHT22;13446;50.926;5.332;2024-01-25T14:25:04;11.00;99.90
25554;DHT22;13446;50.926;5.332;2024-01-25T14:27:30;11.10;99.90
25554;DHT22;13446;50.926;5.332;2024-01-25T14:29:56;10.90;99.90
25554;DHT22;13446;50.926;5.332;2024-01-25T14:32:21;10.90;99.90
25554;DHT22;13446;50.926;5.332;2024-01-25T14:34:48;11.10;99.90
25554;DHT22;13446;50.926;5.332;2024-01-25T14:37:14;11.10;99.90
25554;DHT22;13446;50.926;5.332;2024-01-25T14:39:39;11.00;99.90
25554;DHT22;13446;50.926;5.332;2024-01-25T14:42:11;11.10;99.90
25554;DHT22;13446;50.926;5.332;2024-01-25T14:44:38;11.20;99.90
25554;DHT22;13446;50.926;5.332;2024-01-25T14:47:04;11.20;99.90
25554;DHT22;13446;50.926;5.332;2024-01-25T14:49:30;11.30;99.90
25554;DHT22;13446;50.926;5.332;2024-01-25T14:51:56;11.20;99.90
25554;DHT22;13446;50.926;5.332;2024-01-25T14:54:25;11.20;99.90
25554;DHT22;13446;50.926;5.332;2024-01-25T14:56:50;11.50;99.90
25554;DHT22;13446;50.926;5.332;2024-01-25T14:59:17;11.40;99.90
25554;DHT22;13446;50.926;5.332;2024-01-25T15:01:47;11.30;99.90
25554;DHT22;13446;50.926;5.332;2024-01-25T15:04:13;11.40;99.90
25554;DHT22;13446;50.926;5.332;2024-01-25T15:06:41;11.50;99.90
25554;DHT22;13446;50.926;5.332;2024-01-25T15:09:07;11.30;99.90
25554;DHT22;13446;50.926;5.332;2024-01-25T15:11:32;11.20;99.90
25554;DHT22;13446;50.926;5.332;2024-01-25T15:13:58;11.10;99.90
25554;DHT22;13446;50.926;5.332;2024-01-25T15:16:25;11.10;99.90
25554;DHT22;13446;50.926;5.332;2024-01-25T15:19:00;11.00;99.90
25554;DHT22;13446;50.926;5.332;2024-01-25T15:21:26;11.00;99.90
25554;DHT22;13446;50.926;5.332;2024-01-25T15:23:52;10.90;99.90
25554;DHT22;13446;50.926;5.332;2024-01-25T15:26:18;10.90;99.90
25554;DHT22;13446;50.926;5.332;2024-01-25T15:28:44;11.00;99.90
25554;DHT22;13446;50.926;5.332;2024-01-25T15:31:10;11.00;99.90
25554;DHT22;13446;50.926;5.332;2024-01-25T15:33:36;11.00;99.90
25554;DHT22;13446;50.926;5.332;2024-01-25T15:36:02;11.00;99.90